Glenwood, New York
Current Conditions -  °F | °C
As of 12:10 PM on Tuesday 27 Jan 2015 (Local Time) from KBUF Reporting Station
Light Snow Light Snow  
Wind Chill:   Ceiling: 2000
Heat Index: 16°   Visibility: 10mi
Dew Point:   Wind: 13mph
Humidity: 68%   Direction: 20°NNE
Pressure: 30"   Gusts: NA
Location:  42.61°N, 78.65°W
Report Text: KBUF 271710Z 02011KT 10SM -SN BKN020 BKN090 BKN250 M09/M14 A3000 RMK AO2 PCPN VRY LGT P0000 T10891139
Loading
Personal Weather Stations






























Interactive Weather Map New forecast layout! Learn more

10-Day Weather Forecast

Advertisements
Track Severe Weather on mobile